sensor_id;sensor_type;location;lat;lon;timestamp;P1;durP1;ratioP1;P2;durP2;ratioP2
72929;SDS011;61073;54.260;20.816;2023-03-17T07:02:23;18.13;;;8.03;;
72929;SDS011;61073;54.260;20.816;2023-03-17T07:07:18;21.92;;;7.78;;
72929;SDS011;61073;54.260;20.816;2023-03-17T07:09:46;18.80;;;9.85;;
72929;SDS011;61073;54.260;20.816;2023-03-17T07:12:13;19.67;;;10.23;;
72929;SDS011;61073;54.260;20.816;2023-03-17T12:53:35;8.60;;;5.63;;
72929;SDS011;61073;54.260;20.816;2023-03-17T12:58:34;10.68;;;5.28;;
72929;SDS011;61073;54.260;20.816;2023-03-17T13:01:05;13.85;;;5.35;;
72929;SDS011;61073;54.260;20.816;2023-03-17T13:03:34;14.07;;;5.25;;
72929;SDS011;61073;54.260;20.816;2023-03-17T13:06:05;10.48;;;5.82;;
72929;SDS011;61073;54.260;20.816;2023-03-17T13:08:34;16.92;;;6.38;;
72929;SDS011;61073;54.260;20.816;2023-03-17T13:13:56;7.30;;;4.65;;
72929;SDS011;61073;54.260;20.816;2023-03-17T13:16:32;12.55;;;6.40;;
72929;SDS011;61073;54.260;20.816;2023-03-17T13:21:48;14.00;;;5.68;;
72929;SDS011;61073;54.260;20.816;2023-03-17T13:29:36;12.23;;;5.97;;
72929;SDS011;61073;54.260;20.816;2023-03-17T13:34:51;8.57;;;5.07;;
72929;SDS011;61073;54.260;20.816;2023-03-17T13:37:24;7.93;;;5.50;;
72929;SDS011;61073;54.260;20.816;2023-03-17T13:47:52;9.02;;;5.10;;
72929;SDS011;61073;54.260;20.816;2023-03-17T13:50:39;7.70;;;4.90;;
72929;SDS011;61073;54.260;20.816;2023-03-17T14:00:37;8.65;;;4.75;;
72929;SDS011;61073;54.260;20.816;2023-03-17T14:05:49;10.48;;;5.00;;
72929;SDS011;61073;54.260;20.816;2023-03-17T14:08:20;5.78;;;4.13;;
72929;SDS011;61073;54.260;20.816;2023-03-17T14:10:54;6.25;;;3.58;;
72929;SDS011;61073;54.260;20.816;2023-03-17T14:13:23;9.75;;;4.20;;
72929;SDS011;61073;54.260;20.816;2023-03-17T14:16:00;8.25;;;4.22;;
72929;SDS011;61073;54.260;20.816;2023-03-17T14:18:34;8.02;;;4.60;;
72929;SDS011;61073;54.260;20.816;2023-03-17T14:21:03;14.02;;;5.18;;
72929;SDS011;61073;54.260;20.816;2023-03-17T14:23:35;20.75;;;5.22;;
72929;SDS011;61073;54.260;20.816;2023-03-17T14:26:02;12.75;;;4.47;;
72929;SDS011;61073;54.260;20.816;2023-03-17T14:28:32;8.35;;;4.28;;
72929;SDS011;61073;54.260;20.816;2023-03-17T14:31:00;11.68;;;4.70;;
72929;SDS011;61073;54.260;20.816;2023-03-17T14:36:00;9.60;;;4.85;;
72929;SDS011;61073;54.260;20.816;2023-03-17T14:38:29;8.50;;;4.65;;
72929;SDS011;61073;54.260;20.816;2023-03-17T14:41:00;11.00;;;4.38;;
72929;SDS011;61073;54.260;20.816;2023-03-17T14:43:29;7.78;;;4.72;;
72929;SDS011;61073;54.260;20.816;2023-03-17T14:46:00;10.20;;;4.15;;
72929;SDS011;61073;54.260;20.816;2023-03-17T14:48:31;10.52;;;4.18;;
72929;SDS011;61073;54.260;20.816;2023-03-17T14:51:00;6.22;;;3.95;;
72929;SDS011;61073;54.260;20.816;2023-03-17T14:53:34;7.95;;;4.50;;
72929;SDS011;61073;54.260;20.816;2023-03-17T14:56:02;7.75;;;4.18;;
72929;SDS011;61073;54.260;20.816;2023-03-17T14:58:30;9.40;;;4.60;;
72929;SDS011;61073;54.260;20.816;2023-03-17T15:01:02;7.68;;;4.50;;
72929;SDS011;61073;54.260;20.816;2023-03-17T15:03:31;14.10;;;4.65;;
72929;SDS011;61073;54.260;20.816;2023-03-17T15:06:15;11.98;;;4.70;;
72929;SDS011;61073;54.260;20.816;2023-03-17T15:08:44;9.35;;;4.68;;
72929;SDS011;61073;54.260;20.816;2023-03-17T15:13:55;7.88;;;4.25;;
72929;SDS011;61073;54.260;20.816;2023-03-17T15:16:32;8.40;;;3.85;;
72929;SDS011;61073;54.260;20.816;2023-03-17T15:19:04;11.27;;;4.82;;
72929;SDS011;61073;54.260;20.816;2023-03-17T15:21:33;8.60;;;4.80;;
72929;SDS011;61073;54.260;20.816;2023-03-17T15:24:05;6.75;;;4.53;;
72929;SDS011;61073;54.260;20.816;2023-03-17T15:26:33;10.40;;;5.10;;
72929;SDS011;61073;54.260;20.816;2023-03-17T15:29:02;11.65;;;4.53;;
72929;SDS011;61073;54.260;20.816;2023-03-17T15:31:29;8.32;;;4.47;;
72929;SDS011;61073;54.260;20.816;2023-03-17T15:33:56;6.53;;;4.25;;
72929;SDS011;61073;54.260;20.816;2023-03-17T15:36:23;10.48;;;4.60;;
72929;SDS011;61073;54.260;20.816;2023-03-17T15:38:58;10.02;;;4.30;;
72929;SDS011;61073;54.260;20.816;2023-03-17T15:41:25;5.70;;;3.63;;
72929;SDS011;61073;54.260;20.816;2023-03-17T15:43:52;5.57;;;3.78;;
72929;SDS011;61073;54.260;20.816;2023-03-17T15:46:26;6.28;;;3.83;;
72929;SDS011;61073;54.260;20.816;2023-03-17T15:48:56;24.00;;;5.03;;
72929;SDS011;61073;54.260;20.816;2023-03-17T15:51:23;7.72;;;4.28;;
72929;SDS011;61073;54.260;20.816;2023-03-17T15:53:50;9.25;;;4.30;;
72929;SDS011;61073;54.260;20.816;2023-03-17T15:56:18;9.15;;;4.68;;
72929;SDS011;61073;54.260;20.816;2023-03-17T15:58:46;8.55;;;4.70;;
72929;SDS011;61073;54.260;20.816;2023-03-17T16:01:15;9.90;;;4.97;;
72929;SDS011;61073;54.260;20.816;2023-03-17T16:03:43;7.53;;;5.50;;
72929;SDS011;61073;54.260;20.816;2023-03-17T16:18:32;11.98;;;4.93;;
72929;SDS011;61073;54.260;20.816;2023-03-17T16:21:02;10.20;;;5.18;;
72929;SDS011;61073;54.260;20.816;2023-03-17T16:23:30;9.32;;;4.97;;
72929;SDS011;61073;54.260;20.816;2023-03-17T16:25:58;12.65;;;4.78;;
72929;SDS011;61073;54.260;20.816;2023-03-17T16:28:39;9.90;;;5.35;;
72929;SDS011;61073;54.260;20.816;2023-03-17T16:33:49;14.07;;;4.85;;
72929;SDS011;61073;54.260;20.816;2023-03-17T16:38:44;10.63;;;5.10;;
72929;SDS011;61073;54.260;20.816;2023-03-17T16:43:43;9.45;;;5.15;;
72929;SDS011;61073;54.260;20.816;2023-03-17T16:46:11;11.00;;;5.60;;
72929;SDS011;61073;54.260;20.816;2023-03-17T16:48:39;8.30;;;5.20;;
72929;SDS011;61073;54.260;20.816;2023-03-17T16:51:06;7.93;;;4.63;;
72929;SDS011;61073;54.260;20.816;2023-03-17T16:53:33;9.57;;;5.38;;
72929;SDS011;61073;54.260;20.816;2023-03-17T16:56:01;9.77;;;4.40;;
72929;SDS011;61073;54.260;20.816;2023-03-17T16:58:29;9.45;;;5.00;;
72929;SDS011;61073;54.260;20.816;2023-03-17T17:00:58;8.70;;;4.35;;
72929;SDS011;61073;54.260;20.816;2023-03-17T17:03:26;7.70;;;4.32;;
72929;SDS011;61073;54.260;20.816;2023-03-17T17:05:54;7.88;;;4.60;;
72929;SDS011;61073;54.260;20.816;2023-03-17T17:08:22;8.38;;;5.13;;
72929;SDS011;61073;54.260;20.816;2023-03-17T17:10:49;8.57;;;4.65;;
72929;SDS011;61073;54.260;20.816;2023-03-17T17:13:17;13.55;;;4.68;;
72929;SDS011;61073;54.260;20.816;2023-03-17T17:15:44;8.40;;;4.63;;
72929;SDS011;61073;54.260;20.816;2023-03-17T17:18:15;10.70;;;4.85;;
72929;SDS011;61073;54.260;20.816;2023-03-17T17:20:43;7.80;;;3.85;;
72929;SDS011;61073;54.260;20.816;2023-03-17T17:23:13;8.75;;;4.20;;
72929;SDS011;61073;54.260;20.816;2023-03-17T17:25:40;11.18;;;4.90;;
72929;SDS011;61073;54.260;20.816;2023-03-17T17:28:07;9.65;;;5.15;;
72929;SDS011;61073;54.260;20.816;2023-03-17T17:30:35;17.25;;;4.53;;
72929;SDS011;61073;54.260;20.816;2023-03-17T17:33:02;10.60;;;5.20;;
72929;SDS011;61073;54.260;20.816;2023-03-17T17:35:31;15.38;;;4.75;;
72929;SDS011;61073;54.260;20.816;2023-03-17T17:38:01;13.75;;;4.80;;
72929;SDS011;61073;54.260;20.816;2023-03-17T17:42:57;16.08;;;5.57;;
72929;SDS011;61073;54.260;20.816;2023-03-17T17:45:24;10.20;;;5.15;;
72929;SDS011;61073;54.260;20.816;2023-03-17T17:50:19;12.60;;;6.05;;
72929;SDS011;61073;54.260;20.816;2023-03-17T17:52:46;14.77;;;6.25;;
72929;SDS011;61073;54.260;20.816;2023-03-17T17:55:14;14.50;;;6.75;;
72929;SDS011;61073;54.260;20.816;2023-03-17T17:57:41;12.95;;;6.28;;
72929;SDS011;61073;54.260;20.816;2023-03-17T18:00:10;14.30;;;6.15;;
72929;SDS011;61073;54.260;20.816;2023-03-17T18:02:38;16.63;;;7.38;;
72929;SDS011;61073;54.260;20.816;2023-03-17T18:05:05;17.10;;;7.38;;
72929;SDS011;61073;54.260;20.816;2023-03-17T18:07:34;21.75;;;8.57;;
72929;SDS011;61073;54.260;20.816;2023-03-17T18:10:02;14.52;;;6.93;;
72929;SDS011;61073;54.260;20.816;2023-03-17T18:12:30;16.60;;;7.88;;
72929;SDS011;61073;54.260;20.816;2023-03-17T18:14:57;15.70;;;7.82;;
72929;SDS011;61073;54.260;20.816;2023-03-17T18:17:24;15.90;;;7.25;;
72929;SDS011;61073;54.260;20.816;2023-03-17T18:22:19;17.98;;;7.15;;
72929;SDS011;61073;54.260;20.816;2023-03-17T18:24:47;12.45;;;7.32;;
72929;SDS011;61073;54.260;20.816;2023-03-17T18:27:14;17.85;;;8.27;;
72929;SDS011;61073;54.260;20.816;2023-03-17T18:29:42;20.02;;;10.23;;
72929;SDS011;61073;54.260;20.816;2023-03-17T18:32:09;16.92;;;9.65;;
72929;SDS011;61073;54.260;20.816;2023-03-17T18:34:38;17.30;;;9.77;;
72929;SDS011;61073;54.260;20.816;2023-03-17T18:37:09;18.95;;;9.60;;
72929;SDS011;61073;54.260;20.816;2023-03-17T18:39:36;22.30;;;9.70;;
72929;SDS011;61073;54.260;20.816;2023-03-17T18:42:04;18.20;;;10.07;;
72929;SDS011;61073;54.260;20.816;2023-03-17T18:44:32;19.48;;;10.50;;
72929;SDS011;61073;54.260;20.816;2023-03-17T18:47:00;20.00;;;11.02;;
72929;SDS011;61073;54.260;20.816;2023-03-17T18:49:27;23.33;;;10.52;;
72929;SDS011;61073;54.260;20.816;2023-03-17T18:51:54;23.33;;;11.52;;
72929;SDS011;61073;54.260;20.816;2023-03-17T18:54:22;21.67;;;11.20;;
72929;SDS011;61073;54.260;20.816;2023-03-17T18:56:49;25.05;;;11.45;;
72929;SDS011;61073;54.260;20.816;2023-03-17T18:59:16;19.87;;;10.80;;
72929;SDS011;61073;54.260;20.816;2023-03-17T19:01:43;17.30;;;10.35;;
72929;SDS011;61073;54.260;20.816;2023-03-17T19:04:11;22.08;;;10.70;;
72929;SDS011;61073;54.260;20.816;2023-03-17T19:06:38;20.23;;;10.27;;
72929;SDS011;61073;54.260;20.816;2023-03-17T19:09:11;20.25;;;9.85;;
72929;SDS011;61073;54.260;20.816;2023-03-17T19:11:38;21.05;;;10.18;;
72929;SDS011;61073;54.260;20.816;2023-03-17T19:14:05;19.75;;;10.20;;
72929;SDS011;61073;54.260;20.816;2023-03-17T19:16:33;17.70;;;9.63;;
72929;SDS011;61073;54.260;20.816;2023-03-17T19:19:01;17.20;;;10.07;;
72929;SDS011;61073;54.260;20.816;2023-03-17T19:21:28;18.90;;;9.95;;
72929;SDS011;61073;54.260;20.816;2023-03-17T19:23:57;19.55;;;9.82;;
72929;SDS011;61073;54.260;20.816;2023-03-17T19:26:25;18.05;;;9.50;;
72929;SDS011;61073;54.260;20.816;2023-03-17T19:28:53;19.33;;;9.57;;
72929;SDS011;61073;54.260;20.816;2023-03-17T19:31:22;15.32;;;8.00;;
72929;SDS011;61073;54.260;20.816;2023-03-17T19:33:49;16.50;;;8.13;;
72929;SDS011;61073;54.260;20.816;2023-03-17T19:36:17;17.23;;;7.80;;
72929;SDS011;61073;54.260;20.816;2023-03-17T19:38:45;17.92;;;8.18;;
72929;SDS011;61073;54.260;20.816;2023-03-17T19:41:12;16.75;;;8.50;;
72929;SDS011;61073;54.260;20.816;2023-03-17T19:43:40;13.27;;;7.85;;
72929;SDS011;61073;54.260;20.816;2023-03-17T19:46:09;15.63;;;7.35;;
72929;SDS011;61073;54.260;20.816;2023-03-17T19:48:37;18.60;;;7.75;;
72929;SDS011;61073;54.260;20.816;2023-03-17T19:51:04;15.45;;;7.97;;
72929;SDS011;61073;54.260;20.816;2023-03-17T19:53:31;15.32;;;7.47;;
72929;SDS011;61073;54.260;20.816;2023-03-17T19:55:58;17.35;;;8.02;;
72929;SDS011;61073;54.260;20.816;2023-03-17T19:58:26;16.17;;;8.40;;
72929;SDS011;61073;54.260;20.816;2023-03-17T20:03:20;17.33;;;7.68;;
72929;SDS011;61073;54.260;20.816;2023-03-17T20:05:50;12.05;;;7.07;;
72929;SDS011;61073;54.260;20.816;2023-03-17T20:08:17;16.80;;;7.43;;
72929;SDS011;61073;54.260;20.816;2023-03-17T20:10:44;18.30;;;8.25;;
72929;SDS011;61073;54.260;20.816;2023-03-17T20:13:12;15.15;;;7.53;;
72929;SDS011;61073;54.260;20.816;2023-03-17T20:18:07;18.85;;;8.15;;
72929;SDS011;61073;54.260;20.816;2023-03-17T20:20:34;17.98;;;7.53;;
72929;SDS011;61073;54.260;20.816;2023-03-17T20:27:55;19.35;;;8.15;;
72929;SDS011;61073;54.260;20.816;2023-03-17T20:30:22;14.38;;;7.53;;
72929;SDS011;61073;54.260;20.816;2023-03-17T20:32:49;19.77;;;7.88;;
72929;SDS011;61073;54.260;20.816;2023-03-17T20:35:16;17.20;;;7.50;;
72929;SDS011;61073;54.260;20.816;2023-03-17T20:37:43;19.45;;;8.23;;
72929;SDS011;61073;54.260;20.816;2023-03-17T20:40:11;19.02;;;7.57;;
72929;SDS011;61073;54.260;20.816;2023-03-17T20:42:38;19.48;;;7.43;;
72929;SDS011;61073;54.260;20.816;2023-03-17T20:45:06;11.82;;;6.45;;
72929;SDS011;61073;54.260;20.816;2023-03-17T20:47:33;18.10;;;7.05;;
72929;SDS011;61073;54.260;20.816;2023-03-17T20:50:01;15.27;;;7.18;;
72929;SDS011;61073;54.260;20.816;2023-03-17T20:52:29;12.73;;;7.30;;
72929;SDS011;61073;54.260;20.816;2023-03-17T20:54:56;16.90;;;7.22;;
72929;SDS011;61073;54.260;20.816;2023-03-17T21:04:48;14.68;;;6.82;;
72929;SDS011;61073;54.260;20.816;2023-03-17T21:07:17;18.98;;;8.38;;
72929;SDS011;61073;54.260;20.816;2023-03-17T21:09:44;17.10;;;8.18;;
72929;SDS011;61073;54.260;20.816;2023-03-17T21:12:18;17.58;;;8.07;;
72929;SDS011;61073;54.260;20.816;2023-03-17T21:14:46;14.90;;;8.50;;
72929;SDS011;61073;54.260;20.816;2023-03-17T21:17:13;14.02;;;7.70;;
72929;SDS011;61073;54.260;20.816;2023-03-17T21:19:41;16.50;;;8.85;;
72929;SDS011;61073;54.260;20.816;2023-03-17T21:22:09;15.23;;;7.75;;
72929;SDS011;61073;54.260;20.816;2023-03-17T21:24:37;17.38;;;8.10;;
72929;SDS011;61073;54.260;20.816;2023-03-17T21:27:06;20.63;;;7.93;;
72929;SDS011;61073;54.260;20.816;2023-03-17T21:29:34;15.70;;;7.87;;
72929;SDS011;61073;54.260;20.816;2023-03-17T21:32:02;19.42;;;8.20;;
72929;SDS011;61073;54.260;20.816;2023-03-17T21:34:29;17.70;;;8.43;;
72929;SDS011;61073;54.260;20.816;2023-03-17T21:36:57;16.35;;;7.85;;
72929;SDS011;61073;54.260;20.816;2023-03-17T21:39:26;15.98;;;7.93;;
72929;SDS011;61073;54.260;20.816;2023-03-17T21:41:55;16.13;;;7.13;;
72929;SDS011;61073;54.260;20.816;2023-03-17T21:44:22;17.15;;;7.60;;
72929;SDS011;61073;54.260;20.816;2023-03-17T21:46:50;15.27;;;7.55;;
72929;SDS011;61073;54.260;20.816;2023-03-17T21:49:18;15.18;;;7.53;;
72929;SDS011;61073;54.260;20.816;2023-03-17T21:51:46;17.05;;;7.68;;
72929;SDS011;61073;54.260;20.816;2023-03-17T21:54:13;16.35;;;7.28;;
72929;SDS011;61073;54.260;20.816;2023-03-17T21:56:40;13.30;;;7.22;;
72929;SDS011;61073;54.260;20.816;2023-03-17T21:59:07;14.30;;;7.47;;
72929;SDS011;61073;54.260;20.816;2023-03-17T22:01:36;16.23;;;7.40;;
72929;SDS011;61073;54.260;20.816;2023-03-17T22:04:04;16.27;;;7.18;;
72929;SDS011;61073;54.260;20.816;2023-03-17T22:06:31;13.23;;;7.10;;
72929;SDS011;61073;54.260;20.816;2023-03-17T22:08:58;18.65;;;7.63;;
72929;SDS011;61073;54.260;20.816;2023-03-17T22:11:26;13.45;;;7.28;;
72929;SDS011;61073;54.260;20.816;2023-03-17T22:13:53;12.57;;;7.35;;
72929;SDS011;61073;54.260;20.816;2023-03-17T22:16:20;13.35;;;6.75;;
72929;SDS011;61073;54.260;20.816;2023-03-17T22:18:48;12.48;;;6.43;;
72929;SDS011;61073;54.260;20.816;2023-03-17T22:21:15;12.73;;;6.82;;
72929;SDS011;61073;54.260;20.816;2023-03-17T22:23:43;19.80;;;7.55;;
72929;SDS011;61073;54.260;20.816;2023-03-17T22:26:11;17.48;;;6.85;;
72929;SDS011;61073;54.260;20.816;2023-03-17T22:28:39;17.27;;;7.07;;
72929;SDS011;61073;54.260;20.816;2023-03-17T22:31:10;14.20;;;7.30;;
72929;SDS011;61073;54.260;20.816;2023-03-17T22:33:37;15.48;;;6.78;;
72929;SDS011;61073;54.260;20.816;2023-03-17T22:36:05;15.45;;;6.65;;
72929;SDS011;61073;54.260;20.816;2023-03-17T22:38:32;13.75;;;7.13;;
72929;SDS011;61073;54.260;20.816;2023-03-17T22:41:00;14.07;;;6.85;;
72929;SDS011;61073;54.260;20.816;2023-03-17T22:43:28;13.75;;;7.38;;
72929;SDS011;61073;54.260;20.816;2023-03-17T22:45:56;13.13;;;6.97;;
72929;SDS011;61073;54.260;20.816;2023-03-17T22:48:23;13.65;;;6.80;;
72929;SDS011;61073;54.260;20.816;2023-03-17T22:50:51;15.00;;;6.95;;
72929;SDS011;61073;54.260;20.816;2023-03-17T22:53:18;14.35;;;6.70;;
72929;SDS011;61073;54.260;20.816;2023-03-17T22:55:45;14.98;;;6.70;;
72929;SDS011;61073;54.260;20.816;2023-03-17T22:58:12;13.30;;;6.80;;
72929;SDS011;61073;54.260;20.816;2023-03-17T23:00:39;15.25;;;7.05;;
72929;SDS011;61073;54.260;20.816;2023-03-17T23:03:07;13.15;;;6.68;;
72929;SDS011;61073;54.260;20.816;2023-03-17T23:05:34;13.13;;;7.10;;
72929;SDS011;61073;54.260;20.816;2023-03-17T23:08:02;15.32;;;7.32;;
72929;SDS011;61073;54.260;20.816;2023-03-17T23:10:30;13.75;;;6.88;;
72929;SDS011;61073;54.260;20.816;2023-03-17T23:12:58;13.38;;;6.32;;
72929;SDS011;61073;54.260;20.816;2023-03-17T23:15:25;12.60;;;6.70;;
72929;SDS011;61073;54.260;20.816;2023-03-17T23:17:53;17.92;;;7.40;;
72929;SDS011;61073;54.260;20.816;2023-03-17T23:20:20;15.20;;;7.40;;
72929;SDS011;61073;54.260;20.816;2023-03-17T23:22:47;13.32;;;6.50;;
72929;SDS011;61073;54.260;20.816;2023-03-17T23:25:14;13.40;;;6.90;;
72929;SDS011;61073;54.260;20.816;2023-03-17T23:27:41;18.70;;;6.63;;
72929;SDS011;61073;54.260;20.816;2023-03-17T23:30:08;15.70;;;6.90;;
72929;SDS011;61073;54.260;20.816;2023-03-17T23:32:37;15.77;;;7.05;;
72929;SDS011;61073;54.260;20.816;2023-03-17T23:35:05;13.98;;;7.05;;
72929;SDS011;61073;54.260;20.816;2023-03-17T23:37:33;17.65;;;7.57;;
72929;SDS011;61073;54.260;20.816;2023-03-17T23:40:02;17.23;;;7.70;;
72929;SDS011;61073;54.260;20.816;2023-03-17T23:42:29;16.83;;;7.45;;
72929;SDS011;61073;54.260;20.816;2023-03-17T23:44:56;14.48;;;6.70;;
72929;SDS011;61073;54.260;20.816;2023-03-17T23:47:24;16.50;;;7.28;;
72929;SDS011;61073;54.260;20.816;2023-03-17T23:49:52;13.85;;;7.07;;
72929;SDS011;61073;54.260;20.816;2023-03-17T23:52:20;13.10;;;6.55;;
72929;SDS011;61073;54.260;20.816;2023-03-17T23:54:47;15.23;;;6.70;;
72929;SDS011;61073;54.260;20.816;2023-03-17T23:57:15;11.83;;;6.57;;
72929;SDS011;61073;54.260;20.816;2023-03-17T23:59:42;16.50;;;6.95;;
